DTTJ/DJE METAR and TAF weather

Enter ICAO airport designator
Station Type Date Time Source
DTTJ METAR 2022/11/30 17:30 UTC NOAA

DTTJ 301730Z 32016KT 9999 FEW026 18/07 Q1013


Station Type Date Time Source
DTTJ Decoded METAR 2022/11/30 17:30 UTC NOAA

Djerba Mellita, Tunisia (DTTJ) 33-52N 010-46E 4M
Nov 30, 2022 - 12:30 PM EST / 2022.11.30 1730 UTC
Wind: from the NW (320 degrees) at 18 MPH (16 KT):0
Visibility: greater than 7 mile(s):0
Sky conditions: mostly clear
Temperature: 64 F (18 C)
Dew Point: 44 F (7 C)
Relative Humidity: 48%
Pressure (altimeter): 29.91 in. Hg (1013 hPa)
ob: DTTJ 301730Z 32016KT 9999 FEW026 18/07 Q1013
cycle: 17

Station Type Date Time Source
DTTJ TAF 2022/11/30 18:33 UTC NOAA

TAF DTTJ 301700Z 3018/0118 32016KT 9999 FEW026
BECMG 0103/0105 35006KT

Example: see airport list